Time;durP1;ratioP1;P1;durP2;ratioP2;P2;SDS_P1;SDS_P2;PMS_P1;PMS_P2;Temp;Humidity;BMP_temperature;BMP_pressure;BME280_temperature;BME280_humidity;BME280_pressure;Samples;Min_cycle;Max_cycle;Signal;HPM_P1;HPM_P2
2023/12/05 00:00:20;;;;;;;9.30;7.47;;;;;;;1.60;100.00;96924.25;5130836;28;20223;-76
2023/12/05 00:02:46;;;;;;;11.13;8.03;;;;;;;1.69;100.00;96914.41;5131244;28;20206;-76
2023/12/05 00:05:13;;;;;;;9.63;8.20;;;;;;;1.67;100.00;96925.06;5131149;28;20229;-76
2023/12/05 00:07:40;;;;;;;9.90;8.00;;;;;;;1.64;100.00;96920.25;5130900;27;20691;-76
2023/12/05 00:10:06;;;;;;;10.23;8.07;;;;;;;1.57;100.00;96910.72;5131092;27;20354;-76
2023/12/05 00:12:33;;;;;;;10.00;7.87;;;;;;;1.60;100.00;96916.38;5131107;27;20612;-76
2023/12/05 00:14:59;;;;;;;9.83;7.50;;;;;;;1.57;100.00;96905.47;5130698;28;20669;-76
2023/12/05 00:17:25;;;;;;;12.53;8.70;;;;;;;1.55;100.00;96912.69;5130954;28;20203;-76
2023/12/05 00:19:52;;;;;;;9.33;7.50;;;;;;;1.61;100.00;96906.69;5130523;28;20226;-76
2023/12/05 00:22:18;;;;;;;12.40;8.17;;;;;;;1.68;100.00;96905.75;5130920;27;20234;-76
2023/12/05 00:24:45;;;;;;;10.07;7.87;;;;;;;1.70;100.00;96901.13;5130850;28;20213;-76
2023/12/05 00:27:11;;;;;;;10.93;8.10;;;;;;;1.78;100.00;96902.78;5130471;28;20654;-76
2023/12/05 00:29:38;;;;;;;9.17;7.33;;;;;;;1.74;100.00;96906.78;5130726;28;20219;-76
2023/12/05 00:32:05;;;;;;;10.50;7.53;;;;;;;1.71;100.00;96905.38;5120082;27;20203;-76
2023/12/05 00:34:31;;;;;;;8.80;7.77;;;;;;;1.67;100.00;96913.81;5117039;28;20206;-76
2023/12/05 00:36:58;;;;;;;9.17;7.83;;;;;;;1.67;100.00;96903.34;5116610;28;20688;-76
2023/12/05 00:39:24;;;;;;;9.70;7.90;;;;;;;1.72;100.00;96906.19;5116715;28;20234;-76
2023/12/05 00:41:50;;;;;;;9.80;6.63;;;;;;;1.82;100.00;96914.50;5116520;28;20207;-76
2023/12/05 00:44:17;;;;;;;8.10;6.83;;;;;;;1.92;100.00;96909.72;5116726;28;20207;-76
2023/12/05 00:46:43;;;;;;;7.50;6.33;;;;;;;1.93;100.00;96914.78;5116642;28;20203;-76
2023/12/05 00:49:09;;;;;;;8.33;5.97;;;;;;;1.96;100.00;96916.19;5116578;28;20300;-76
2023/12/05 00:51:36;;;;;;;6.73;5.50;;;;;;;2.01;100.00;96917.25;5116657;28;20572;-76
2023/12/05 00:54:02;;;;;;;6.63;4.90;;;;;;;1.97;100.00;96909.94;5116574;28;20564;-76
2023/12/05 00:56:28;;;;;;;6.93;5.60;;;;;;;2.03;100.00;96910.00;5116511;28;20203;-76
2023/12/05 00:58:55;;;;;;;5.97;4.40;;;;;;;2.04;100.00;96897.72;5116115;28;20714;-76
2023/12/05 01:01:21;;;;;;;4.60;4.20;;;;;;;2.11;100.00;96896.72;5116380;28;20223;-76
2023/12/05 01:03:48;;;;;;;5.40;4.17;;;;;;;2.14;100.00;96895.53;5116432;28;20218;-76
2023/12/05 01:06:14;;;;;;;5.23;4.27;;;;;;;2.15;100.00;96903.22;5116370;28;20224;-76
2023/12/05 01:08:40;;;;;;;4.60;4.00;;;;;;;2.22;100.00;96904.03;5115920;28;20576;-76
2023/12/05 01:11:07;;;;;;;4.00;3.60;;;;;;;2.23;100.00;96908.28;5116559;28;20529;-76
2023/12/05 01:13:33;;;;;;;4.53;3.77;;;;;;;2.19;100.00;96908.88;5115934;28;20578;-76
2023/12/05 01:15:59;;;;;;;4.10;3.70;;;;;;;2.26;100.00;96915.75;5116179;28;20203;-76
2023/12/05 01:18:28;;;;;;;3.60;3.30;;;;;;;2.30;100.00;96911.75;5116175;28;20203;-76
2023/12/05 01:20:55;;;;;;;3.43;3.13;;;;;;;2.30;100.00;96910.94;5115691;28;20231;-76
2023/12/05 01:23:21;;;;;;;3.40;3.10;;;;;;;2.44;100.00;96920.50;5116026;28;20199;-76
2023/12/05 01:25:47;;;;;;;3.47;2.83;;;;;;;2.51;100.00;96905.56;5115990;28;20207;-76
2023/12/05 01:28:14;;;;;;;3.00;2.70;;;;;;;2.53;100.00;96904.38;5115904;28;20554;-76
2023/12/05 01:30:41;;;;;;;2.63;2.43;;;;;;;2.54;100.00;96906.00;5115830;28;20223;-76
2023/12/05 01:33:08;;;;;;;3.17;2.67;;;;;;;2.58;100.00;96919.53;5115474;27;20204;-76
2023/12/05 01:35:34;;;;;;;2.67;2.43;;;;;;;2.73;100.00;96907.06;5115866;28;20225;-76
2023/12/05 01:38:00;;;;;;;3.03;2.27;;;;;;;2.83;100.00;96905.69;5115772;28;20199;-76
2023/12/05 01:40:27;;;;;;;2.30;2.10;;;;;;;2.89;100.00;96904.88;5115274;28;20688;-76
2023/12/05 01:42:53;;;;;;;3.10;2.80;;;;;;;2.83;100.00;96910.94;5114685;28;20222;-76
2023/12/05 01:45:20;;;;;;;2.77;2.30;;;;;;;2.82;100.00;96909.31;5115634;28;20203;-76
2023/12/05 01:47:46;;;;;;;2.40;2.20;;;;;;;2.89;100.00;96911.94;5115268;28;20669;-76
2023/12/05 01:50:22;;;;;;;2.60;2.40;;;;;;;2.87;100.00;96913.94;5115429;28;20288;-76
2023/12/05 01:52:52;;;;;;;2.60;2.40;;;;;;;3.03;100.00;96910.97;5116089;28;20183;-76
2023/12/05 01:55:20;;;;;;;2.70;2.50;;;;;;;3.07;100.00;96912.19;5115479;28;20183;-76
2023/12/05 01:57:48;;;;;;;2.83;2.63;;;;;;;3.00;100.00;96903.47;5115439;28;20200;-76
2023/12/05 02:00:16;;;;;;;2.53;2.27;;;;;;;3.00;100.00;96917.44;5115200;28;20227;-76
2023/12/05 02:02:43;;;;;;;2.80;2.27;;;;;;;2.93;100.00;96921.06;5115011;28;20567;-76
2023/12/05 02:05:11;;;;;;;3.53;2.77;;;;;;;2.96;100.00;96905.72;5115255;28;20238;-76
2023/12/05 02:07:37;;;;;;;2.73;2.53;;;;;;;2.97;100.00;96906.50;5115234;28;20210;-76
2023/12/05 02:10:06;;;;;;;2.70;2.50;;;;;;;2.92;100.00;96909.72;5115031;28;20219;-76
2023/12/05 02:12:32;;;;;;;3.10;2.80;;;;;;;2.84;100.00;96904.66;5115160;28;20203;-74
2023/12/05 02:14:59;;;;;;;3.07;2.70;;;;;;;2.75;100.00;96913.72;5114667;28;20304;-74
2023/12/05 02:17:33;;;;;;;2.63;2.43;;;;;;;2.79;100.00;96911.50;5115020;28;20203;-74
2023/12/05 02:20:11;;;;;;;3.33;2.63;;;;;;;2.72;100.00;96913.31;5113139;28;20222;-74
2023/12/05 02:23:01;;;;;;;3.13;2.83;;;;;;;2.83;100.00;96902.22;5114984;28;20195;-74
2023/12/05 02:25:47;;;;;;;2.93;2.63;;;;;;;2.79;100.00;96908.88;5114837;28;20282;-76
2023/12/05 02:28:15;;;;;;;3.47;3.17;;;;;;;2.69;100.00;96911.06;5115187;28;20556;-76
2023/12/05 02:30:42;;;;;;;3.77;2.83;;;;;;;2.81;100.00;96912.13;5114404;28;20722;-76
2023/12/05 02:33:08;;;;;;;3.30;2.80;;;;;;;2.70;100.00;96900.38;5114368;28;20674;-76
2023/12/05 02:35:35;;;;;;;3.97;3.07;;;;;;;2.64;100.00;96905.63;5114354;28;20207;-76
2023/12/05 02:38:13;;;;;;;3.23;2.93;;;;;;;2.55;100.00;96907.63;5115215;28;20205;-76
2023/12/05 02:40:54;;;;;;;3.47;2.87;;;;;;;2.62;100.00;96910.25;5114128;28;20685;-76
2023/12/05 02:43:28;;;;;;;2.90;2.60;;;;;;;2.72;100.00;96921.19;5114607;28;20187;-76
2023/12/05 02:45:56;;;;;;;4.30;3.30;;;;;;;2.72;100.00;96918.56;5114576;28;20190;-76
2023/12/05 02:48:23;;;;;;;3.47;3.17;;;;;;;2.71;100.00;96919.56;5114204;28;20688;-76
2023/12/05 02:50:49;;;;;;;3.30;3.00;;;;;;;2.55;100.00;96928.59;5114398;28;20558;-76
2023/12/05 02:53:16;;;;;;;4.03;2.90;;;;;;;2.48;100.00;96929.59;5114070;28;20214;-76
2023/12/05 02:55:42;;;;;;;3.50;3.20;;;;;;;2.52;100.00;96917.69;5114113;28;20285;-76
2023/12/05 02:58:09;;;;;;;3.00;2.70;;;;;;;2.47;100.00;96922.69;5114029;28;20680;-76
2023/12/05 03:00:35;;;;;;;4.33;3.20;;;;;;;2.41;100.00;96932.19;5114161;28;20678;-76
2023/12/05 03:03:01;;;;;;;3.67;3.27;;;;;;;2.44;100.00;96937.00;5113982;28;20669;-76
2023/12/05 03:05:28;;;;;;;3.50;3.20;;;;;;;2.36;100.00;96944.25;5113868;28;20211;-76
2023/12/05 03:07:54;;;;;;;3.70;3.37;;;;;;;2.40;100.00;96935.00;5114159;28;20210;-76
2023/12/05 03:10:20;;;;;;;3.50;3.20;;;;;;;2.32;100.00;96948.25;5114242;28;20226;-76
2023/12/05 03:12:47;;;;;;;3.17;2.93;;;;;;;2.33;100.00;96939.38;5114072;28;20203;-76
2023/12/05 03:15:13;;;;;;;4.63;3.50;;;;;;;2.28;100.00;96945.22;5113841;28;20683;-76
2023/12/05 03:17:39;;;;;;;3.90;3.50;;;;;;;2.29;100.00;96938.97;5113707;28;20203;-76
2023/12/05 03:20:07;;;;;;;3.50;3.20;;;;;;;2.17;100.00;96939.72;5113462;28;20717;-76
2023/12/05 03:22:33;;;;;;;3.47;3.17;;;;;;;2.18;100.00;96941.34;5112913;28;20207;-77
2023/12/05 03:25:00;;;;;;;3.90;3.50;;;;;;;2.12;100.00;96948.16;5114011;28;20199;-77
2023/12/05 03:27:26;;;;;;;3.57;3.23;;;;;;;2.19;100.00;96943.75;5113720;28;20211;-77
2023/12/05 03:29:53;;;;;;;3.90;3.50;;;;;;;2.28;100.00;96953.09;5113858;28;20259;-76
2023/12/05 03:32:19;;;;;;;4.50;3.70;;;;;;;2.18;100.00;96941.34;5114662;28;20199;-76
2023/12/05 03:34:48;;;;;;;3.50;3.20;;;;;;;2.21;100.00;96952.22;5113901;28;20203;-76
2023/12/05 03:37:14;;;;;;;4.10;3.40;;;;;;;2.30;100.00;96934.53;5113744;28;20704;-76
2023/12/05 03:39:40;;;;;;;4.07;3.10;;;;;;;2.36;100.00;96934.56;5113558;28;20226;-76
2023/12/05 03:42:07;;;;;;;3.57;3.23;;;;;;;2.41;100.00;96940.03;5113581;28;20249;-76
2023/12/05 03:44:33;;;;;;;4.83;3.87;;;;;;;2.43;100.00;96940.66;5113332;28;20688;-76
2023/12/05 03:46:59;;;;;;;3.63;3.30;;;;;;;2.51;100.00;96937.88;5113345;28;20568;-76
2023/12/05 03:49:26;;;;;;;4.20;3.63;;;;;;;2.52;100.00;96946.56;5113321;28;20727;-76
2023/12/05 03:51:52;;;;;;;3.80;3.40;;;;;;;2.52;100.00;96936.84;5113613;28;20210;-76
2023/12/05 03:54:18;;;;;;;6.80;3.97;;;;;;;2.46;100.00;96942.88;5113593;28;20214;-76
2023/12/05 03:56:45;;;;;;;4.40;3.50;;;;;;;2.41;100.00;96942.66;5113698;28;20210;-76
2023/12/05 03:59:11;;;;;;;3.80;3.50;;;;;;;2.39;100.00;96941.25;5113578;28;20234;-76
2023/12/05 04:01:37;;;;;;;3.87;3.10;;;;;;;2.35;100.00;96945.25;5113202;28;20708;-76
2023/12/05 04:04:04;;;;;;;4.67;3.83;;;;;;;2.39;100.00;96941.25;5113253;28;20670;-76
2023/12/05 04:06:30;;;;;;;3.47;3.17;;;;;;;2.30;100.00;96948.44;5114863;28;20199;-76
2023/12/05 04:08:57;;;;;;;3.60;3.30;;;;;;;2.26;100.00;96951.66;5116898;28;20702;-76
2023/12/05 04:11:31;;;;;;;4.40;3.40;;;;;;;2.17;100.00;96960.69;5116893;28;20209;-76
2023/12/05 04:13:58;;;;;;;4.73;3.70;;;;;;;2.13;100.00;96954.22;5117307;28;20572;-76
2023/12/05 04:16:25;;;;;;;4.13;3.73;;;;;;;2.02;100.00;96952.13;5117254;28;20199;-76
2023/12/05 04:18:52;;;;;;;4.13;3.73;;;;;;;1.94;100.00;96970.63;5116793;28;20223;-76
2023/12/05 04:21:19;;;;;;;5.83;4.00;;;;;;;1.99;100.00;96963.78;5116678;27;20324;-76
2023/12/05 04:23:46;;;;;;;4.90;3.97;;;;;;;1.95;100.00;96967.81;5116831;28;20708;-76
2023/12/05 04:26:20;;;;;;;4.27;3.87;;;;;;;2.03;100.00;96965.03;5117060;28;20199;-76
2023/12/05 04:28:47;;;;;;;6.60;3.80;;;;;;;1.95;100.00;96967.81;5116590;27;20198;-74
2023/12/05 04:31:14;;;;;;;5.30;4.00;;;;;;;2.00;100.00;96964.59;5116510;28;20199;-76
2023/12/05 04:33:41;;;;;;;6.23;3.80;;;;;;;1.94;100.00;96973.25;5116218;28;20666;-76
2023/12/05 04:36:08;;;;;;;6.03;4.00;;;;;;;1.94;100.00;96958.31;5117069;28;20299;-76
2023/12/05 04:38:36;;;;;;;4.57;3.50;;;;;;;2.08;100.00;96951.38;5115995;28;20203;-76
2023/12/05 04:41:03;;;;;;;5.70;3.87;;;;;;;2.23;100.00;96955.50;5116273;28;20227;-76
2023/12/05 04:43:33;;;;;;;4.03;3.30;;;;;;;2.33;100.00;96955.13;5116525;28;20209;-76
2023/12/05 04:46:00;;;;;;;5.00;3.63;;;;;;;2.55;100.00;96949.59;5116488;28;20308;-76
2023/12/05 04:48:26;;;;;;;4.40;3.20;;;;;;;2.39;100.00;96956.97;5116450;28;20207;-76
2023/12/05 04:50:52;;;;;;;4.10;3.50;;;;;;;2.47;100.00;96954.16;5116372;28;20223;-76
2023/12/05 04:53:19;;;;;;;5.70;3.23;;;;;;;2.62;100.00;96957.50;5116388;28;20203;-76
2023/12/05 04:55:45;;;;;;;5.60;3.10;;;;;;;2.64;100.00;96952.84;5116315;28;20211;-76
2023/12/05 04:58:11;;;;;;;3.97;2.93;;;;;;;2.85;100.00;96950.88;5116219;28;20564;-76
2023/12/05 05:00:38;;;;;;;2.93;2.50;;;;;;;2.76;100.00;96944.19;5116108;28;20238;-76
2023/12/05 05:03:05;;;;;;;3.70;2.67;;;;;;;2.79;100.00;96943.00;5116303;28;20199;-76
2023/12/05 05:05:31;;;;;;;2.83;2.50;;;;;;;2.98;100.00;96947.50;5116342;28;20210;-76
2023/12/05 05:07:57;;;;;;;4.13;2.67;;;;;;;2.90;100.00;96935.38;5115948;28;20206;-76
2023/12/05 05:10:24;;;;;;;2.80;2.60;;;;;;;3.00;100.00;96938.44;5115897;28;20233;-76
2023/12/05 05:12:50;;;;;;;3.87;2.43;;;;;;;3.15;100.00;96943.47;5116059;28;20210;-76
2023/12/05 05:15:16;;;;;;;3.50;2.43;;;;;;;3.13;100.00;96945.50;5115925;28;20214;-76
2023/12/05 05:17:43;;;;;;;3.53;2.20;;;;;;;3.24;100.00;96950.16;5115645;28;20203;-76
2023/12/05 05:20:09;;;;;;;3.00;2.40;;;;;;;3.37;100.00;96948.38;5115063;28;20709;-76
2023/12/05 05:22:36;;;;;;;2.40;1.87;;;;;;;3.50;100.00;96945.78;5115464;28;20223;-76
2023/12/05 05:25:02;;;;;;;2.83;1.90;;;;;;;3.44;100.00;96956.28;5115638;28;20200;-76
2023/12/05 05:27:28;;;;;;;2.63;2.03;;;;;;;3.39;100.00;96950.81;5115564;28;20203;-76
2023/12/05 05:29:54;;;;;;;1.83;1.70;;;;;;;3.41;100.00;96952.22;5115772;28;20223;-76
2023/12/05 05:32:23;;;;;;;3.07;1.63;;;;;;;3.51;100.00;96957.88;5115752;28;20202;-76
2023/12/05 05:34:49;;;;;;;2.40;1.87;;;;;;;3.74;100.00;96953.03;5115324;28;20206;-76
2023/12/05 05:37:17;;;;;;;2.83;1.57;;;;;;;3.83;100.00;96956.25;5115438;28;20204;-76
2023/12/05 05:39:43;;;;;;;3.57;1.40;;;;;;;3.75;100.00;96953.84;5115161;28;20223;-76
2023/12/05 05:42:10;;;;;;;3.23;1.50;;;;;;;3.84;100.00;96952.63;5114304;28;20215;-76
2023/12/05 05:44:36;;;;;;;1.30;1.20;;;;;;;4.14;100.00;96953.78;5114717;28;20569;-76
2023/12/05 05:47:03;;;;;;;1.43;1.13;;;;;;;4.10;100.00;96963.09;5114697;28;20546;-76
2023/12/05 05:49:30;;;;;;;2.17;1.00;;;;;;;4.01;100.00;96961.69;5115035;28;20229;-76
2023/12/05 05:51:56;;;;;;;2.47;1.00;;;;;;;3.86;100.00;96959.31;5115080;28;20251;-76
2023/12/05 05:54:24;;;;;;;3.60;1.47;;;;;;;3.60;100.00;96961.13;5114941;28;20199;-76
2023/12/05 05:56:51;;;;;;;2.77;1.60;;;;;;;3.45;100.00;96956.06;5114565;28;20578;-76
2023/12/05 05:59:17;;;;;;;5.40;2.07;;;;;;;3.37;100.00;96960.69;5114436;28;20239;-76
2023/12/05 06:01:43;;;;;;;1.93;1.60;;;;;;;3.22;100.00;96957.44;5114464;28;20234;-76
2023/12/05 06:04:10;;;;;;;4.43;2.30;;;;;;;3.13;100.00;96956.03;5114150;28;20207;-76
2023/12/05 06:06:35;;;;;;;3.23;1.83;;;;;;;3.01;100.00;96954.97;5114482;28;20235;-76
2023/12/05 06:09:01;;;;;;;3.07;2.03;;;;;;;3.01;100.00;96957.59;5114107;28;20229;-76
2023/12/05 06:11:28;;;;;;;2.63;2.20;;;;;;;3.00;100.00;96954.19;5114553;28;20252;-76
2023/12/05 06:13:55;;;;;;;2.73;2.13;;;;;;;2.95;100.00;96945.28;5114421;28;20207;-76
2023/12/05 06:16:22;;;;;;;4.50;2.10;;;;;;;2.82;100.00;96945.22;5114414;28;20260;-76
2023/12/05 06:18:48;;;;;;;3.70;2.23;;;;;;;2.82;100.00;96942.59;5114137;28;20702;-77
2023/12/05 06:21:15;;;;;;;3.33;2.27;;;;;;;2.79;100.00;96950.88;5114366;28;20276;-77
2023/12/05 06:23:41;;;;;;;4.30;2.40;;;;;;;2.95;100.00;96956.59;5114558;28;20199;-77
2023/12/05 06:26:08;;;;;;;3.70;2.50;;;;;;;3.05;100.00;96959.66;5114711;28;20199;-76
2023/12/05 06:28:34;;;;;;;3.00;2.40;;;;;;;2.99;100.00;96965.66;5113203;28;20670;-76
2023/12/05 06:31:01;;;;;;;3.43;2.30;;;;;;;2.90;100.00;96966.06;5113870;28;20536;-76
2023/12/05 06:33:27;;;;;;;3.40;2.63;;;;;;;2.89;100.00;96970.50;5113423;28;20226;-77
2023/12/05 06:35:53;;;;;;;3.37;2.23;;;;;;;2.84;100.00;96982.59;5113227;28;20666;-76
2023/12/05 06:38:20;;;;;;;3.93;2.20;;;;;;;2.84;100.00;96995.72;5113749;28;20213;-76
2023/12/05 06:40:46;;;;;;;3.53;2.57;;;;;;;2.68;100.00;96982.94;5114002;28;20234;-76
2023/12/05 06:43:12;;;;;;;5.83;2.80;;;;;;;2.67;100.00;96992.59;5114095;28;20229;-77
2023/12/05 06:45:39;;;;;;;3.70;2.60;;;;;;;2.68;100.00;96996.03;5113917;28;20209;-76
2023/12/05 06:48:05;;;;;;;8.27;2.93;;;;;;;2.59;100.00;96999.84;5114375;28;20210;-76
2023/12/05 06:50:32;;;;;;;4.93;2.87;;;;;;;2.57;100.00;96996.63;5113522;28;20314;-76
2023/12/05 06:52:59;;;;;;;5.00;2.80;;;;;;;2.64;100.00;96981.69;5113909;28;20203;-76
2023/12/05 06:55:26;;;;;;;15.20;3.37;;;;;;;2.69;100.00;96981.91;5113649;28;20689;-76
2023/12/05 06:57:52;;;;;;;6.20;2.70;;;;;;;2.74;100.00;96979.50;5113888;28;20203;-76
2023/12/05 07:00:19;;;;;;;13.00;3.20;;;;;;;2.74;100.00;96990.00;5113586;28;20723;-76
2023/12/05 07:02:46;;;;;;;22.07;4.30;;;;;;;2.76;100.00;96993.25;5113323;28;20228;-76
2023/12/05 07:05:12;;;;;;;9.30;3.00;;;;;;;2.74;100.00;96997.88;5113424;28;20679;-76
2023/12/05 07:07:38;;;;;;;7.33;2.43;;;;;;;2.75;100.00;97007.41;5113543;28;20206;-76
2023/12/05 07:10:06;;;;;;;5.13;2.10;;;;;;;2.69;100.00;97008.16;5113392;28;20223;-76
2023/12/05 07:12:32;;;;;;;3.13;2.40;;;;;;;2.69;100.00;97010.78;5112884;28;20665;-76
2023/12/05 07:14:59;;;;;;;3.47;2.57;;;;;;;2.67;100.00;97015.44;5113383;28;20572;-76
2023/12/05 07:17:25;;;;;;;4.20;2.50;;;;;;;2.83;100.00;97015.06;5113349;28;20199;-76
2023/12/05 07:19:51;;;;;;;3.00;2.10;;;;;;;2.86;100.00;97022.56;5112890;28;20231;-76
2023/12/05 07:22:18;;;;;;;3.63;2.40;;;;;;;2.92;100.00;97034.91;5112955;28;20233;-76
2023/12/05 07:24:44;;;;;;;2.93;2.30;;;;;;;2.89;100.00;97036.09;5112900;28;20774;-76
2023/12/05 07:27:11;;;;;;;2.87;1.90;;;;;;;3.06;100.00;97047.06;5113537;28;20202;-76
2023/12/05 07:29:37;;;;;;;4.40;2.23;;;;;;;2.92;100.00;97038.34;5113751;28;20223;-76
2023/12/05 07:32:04;;;;;;;4.37;2.10;;;;;;;3.04;100.00;97030.72;5113060;28;20203;-76
2023/12/05 07:34:30;;;;;;;5.23;1.97;;;;;;;3.04;100.00;97036.78;5112809;28;20640;-76
2023/12/05 07:36:56;;;;;;;2.37;1.67;;;;;;;3.09;100.00;97044.06;5113155;28;20207;-76
2023/12/05 07:39:25;;;;;;;2.67;2.10;;;;;;;3.22;100.00;97047.56;5113225;28;20319;-76
2023/12/05 07:41:51;;;;;;;2.67;1.60;;;;;;;3.36;100.00;97046.59;5115067;28;20377;-76
2023/12/05 07:44:18;;;;;;;3.73;1.63;;;;;;;3.29;100.00;97043.13;5117624;28;20203;-76
2023/12/05 07:46:45;;;;;;;3.43;1.60;;;;;;;3.34;100.00;97043.34;5117328;28;20199;-76
2023/12/05 07:49:11;;;;;;;2.17;1.90;;;;;;;3.39;100.00;97048.00;5117241;28;20309;-76
2023/12/05 07:51:38;;;;;;;3.57;2.03;;;;;;;3.52;100.00;97050.66;5117095;28;20684;-76
2023/12/05 07:54:05;;;;;;;3.00;1.53;;;;;;;3.65;100.00;97058.53;5117271;28;20595;-76
2023/12/05 07:56:31;;;;;;;2.87;1.70;;;;;;;3.68;100.00;97063.41;5116963;28;20294;-76
2023/12/05 07:58:58;;;;;;;2.30;1.30;;;;;;;3.67;100.00;97067.06;5116719;28;20233;-76
2023/12/05 08:01:24;;;;;;;1.83;1.27;;;;;;;3.78;100.00;97061.19;5116634;28;20230;-76
2023/12/05 08:03:50;;;;;;;1.90;1.30;;;;;;;3.85;100.00;97064.66;5117343;28;20218;-76
2023/12/05 08:06:17;;;;;;;1.43;1.33;;;;;;;3.83;100.00;97066.66;5117003;28;20571;-76
2023/12/05 08:08:43;;;;;;;2.67;1.50;;;;;;;3.92;100.00;97065.47;5116725;28;20581;-76
2023/12/05 08:11:11;;;;;;;2.50;1.60;;;;;;;3.90;100.00;97070.13;5117080;28;20207;-76
2023/12/05 08:13:38;;;;;;;2.77;1.47;;;;;;;3.89;100.00;97073.75;5116914;28;20666;-76
2023/12/05 08:16:04;;;;;;;2.33;1.67;;;;;;;3.83;100.00;97071.91;5117082;28;20331;-76
2023/12/05 08:18:31;;;;;;;1.73;1.30;;;;;;;3.87;100.00;97067.88;5117343;28;20207;-76
2023/12/05 08:20:57;;;;;;;2.47;1.40;;;;;;;3.95;100.00;97065.06;5116385;28;20210;-76
2023/12/05 08:23:23;;;;;;;2.13;1.50;;;;;;;4.14;100.00;97066.88;5116691;28;20227;-76
2023/12/05 08:25:50;;;;;;;2.43;1.40;;;;;;;4.30;100.00;97071.75;5116782;28;20205;-76
2023/12/05 08:28:16;;;;;;;2.90;1.30;;;;;;;4.38;100.00;97061.03;5117136;28;20207;-76
2023/12/05 08:30:42;;;;;;;2.73;1.30;;;;;;;4.60;100.00;97057.13;5116329;28;20223;-76
2023/12/05 08:33:10;;;;;;;3.03;1.57;;;;;;;4.69;100.00;97058.50;5116418;28;20199;-76
2023/12/05 08:35:36;;;;;;;3.17;1.47;;;;;;;4.77;100.00;97045.13;5116410;28;20521;-76
2023/12/05 08:38:03;;;;;;;3.07;1.40;;;;;;;4.84;100.00;97053.84;5116328;28;20256;-76
2023/12/05 08:40:29;;;;;;;6.80;1.50;;;;;;;4.95;100.00;97053.19;5116109;28;20224;-77
2023/12/05 08:42:55;;;;;;;3.20;1.10;;;;;;;4.87;100.00;97069.22;5115799;28;20223;-76
2023/12/05 08:45:22;;;;;;;3.80;1.13;;;;;;;4.79;100.00;97074.72;5115931;28;20199;-76
2023/12/05 08:47:52;;;;;;;28.10;3.70;;;;;;;4.82;100.00;97080.38;5115907;28;20207;-76
2023/12/05 08:50:19;;;;;;;3.43;1.20;;;;;;;4.78;100.00;97081.78;5116423;28;20222;-77
2023/12/05 08:52:45;;;;;;;3.23;1.33;;;;;;;4.82;100.00;97085.63;5115851;28;20199;-75
2023/12/05 08:55:12;;;;;;;2.03;1.10;;;;;;;4.90;100.00;97092.50;5115895;28;20213;-75
2023/12/05 08:57:39;;;;;;;2.00;0.80;;;;;;;4.94;100.00;97093.72;5116098;28;20199;-75
2023/12/05 09:00:06;;;;;;;3.07;0.90;;;;;;;5.16;100.00;97102.97;5115575;28;20736;-75
2023/12/05 09:02:33;;;;;;;2.03;1.00;;;;;;;5.02;100.00;97096.13;5115588;28;20223;-75
2023/12/05 09:05:01;;;;;;;1.80;1.13;;;;;;;4.98;100.00;97097.56;5115245;28;20207;-75
2023/12/05 09:07:27;;;;;;;1.43;0.90;;;;;;;4.85;100.00;97089.69;5116035;28;20213;-75
2023/12/05 09:09:54;;;;;;;1.77;1.03;;;;;;;5.01;100.00;97095.31;5115708;28;20223;-75
2023/12/05 09:12:20;;;;;;;2.07;1.00;;;;;;;5.09;100.00;97099.53;5115803;28;20206;-75
2023/12/05 09:14:46;;;;;;;3.40;1.23;;;;;;;5.08;100.00;97106.63;5115404;28;20206;-75
2023/12/05 09:17:13;;;;;;;2.80;1.00;;;;;;;5.20;100.00;97104.16;5115757;28;20207;-75
2023/12/05 09:19:39;;;;;;;1.30;1.10;;;;;;;5.23;100.00;97101.91;5115760;28;20241;-75
2023/12/05 09:22:06;;;;;;;2.60;1.07;;;;;;;5.29;100.00;97108.19;5115183;28;20701;-75
2023/12/05 09:24:32;;;;;;;2.50;1.10;;;;;;;5.39;100.00;97119.09;5115581;28;20214;-75
2023/12/05 09:26:58;;;;;;;1.47;1.00;;;;;;;5.41;100.00;97125.78;5115661;28;20572;-76
2023/12/05 09:29:25;;;;;;;1.00;0.70;;;;;;;5.54;100.00;97132.81;5115476;28;20230;-75
2023/12/05 09:31:51;;;;;;;1.70;0.77;;;;;;;5.55;100.00;97123.88;5115454;28;20203;-75
2023/12/05 09:34:18;;;;;;;0.97;0.70;;;;;;;5.68;100.00;97126.44;5115471;28;20248;-75
2023/12/05 09:36:45;;;;;;;1.70;1.00;;;;;;;5.73;100.00;97123.97;5114861;28;20203;-75
2023/12/05 09:39:11;;;;;;;2.07;0.97;;;;;;;5.82;100.00;97120.94;5115119;28;20652;-75
2023/12/05 09:41:41;;;;;;;3.00;1.10;;;;;;;5.83;100.00;97122.53;5115234;28;20207;-75
2023/12/05 09:44:09;;;;;;;1.47;0.80;;;;;;;5.93;100.00;97127.38;5115273;28;20192;-75
2023/12/05 09:46:37;;;;;;;2.20;1.10;;;;;;;5.95;100.00;97120.03;5115047;28;20199;-75
2023/12/05 09:49:06;;;;;;;3.93;1.00;;;;;;;6.03;100.00;97110.06;5114761;27;20233;-75
2023/12/05 09:51:35;;;;;;;1.37;0.80;;;;;;;6.02;100.00;97118.97;5115228;28;20203;-75
2023/12/05 09:54:01;;;;;;;2.47;1.10;;;;;;;5.96;100.00;97121.66;5114999;28;20225;-75
2023/12/05 09:56:28;;;;;;;1.80;0.70;;;;;;;5.96;100.00;97119.00;5114924;28;20210;-75
2023/12/05 09:58:55;;;;;;;1.73;0.90;;;;;;;5.91;100.00;97119.66;5114695;28;20230;-75
2023/12/05 10:01:23;;;;;;;1.97;1.17;;;;;;;6.04;100.00;97116.13;5114759;28;20217;-75
2023/12/05 10:03:59;;;;;;;1.07;0.80;;;;;;;6.13;100.00;97117.50;5113661;28;20690;-75
2023/12/05 10:06:26;;;;;;;2.50;1.07;;;;;;;6.13;100.00;97117.50;5114796;28;20194;-75
2023/12/05 10:08:53;;;;;;;1.83;0.83;;;;;;;6.15;100.00;97118.09;5114738;28;20219;-75
2023/12/05 10:11:28;;;;;;;2.13;0.97;;;;;;;6.17;100.00;97116.88;5114872;28;20203;-75
2023/12/05 10:13:54;;;;;;;3.67;0.70;;;;;;;6.23;100.00;97110.72;5114453;28;20252;-74
2023/12/05 10:16:22;;;;;;;2.97;1.13;;;;;;;6.31;100.00;97109.63;5114654;28;20213;-75
2023/12/05 10:18:49;;;;;;;1.90;1.10;;;;;;;6.26;100.00;97104.19;5114898;28;20256;-75
2023/12/05 10:21:15;;;;;;;4.97;1.67;;;;;;;6.45;100.00;97096.13;5114685;28;20203;-75
2023/12/05 10:23:42;;;;;;;3.03;1.20;;;;;;;6.46;100.00;97108.31;5114195;28;20234;-75
2023/12/05 10:26:08;;;;;;;1.27;0.80;;;;;;;6.51;100.00;97103.19;5114272;28;20199;-75
2023/12/05 10:28:49;;;;;;;2.67;1.00;;;;;;;6.51;100.00;97097.09;5113977;28;20260;-75
2023/12/05 10:31:16;;;;;;;1.75;0.90;;;;;;;6.50;100.00;97100.75;5113057;28;20465;-75
2023/12/05 10:33:42;;;;;;;1.33;0.97;;;;;;;6.60;100.00;97087.88;5114311;28;20202;-75
2023/12/05 10:36:12;;;;;;;0.97;0.90;;;;;;;6.74;100.00;97092.00;5114440;28;20213;-75
2023/12/05 10:38:39;;;;;;;0.90;0.70;;;;;;;6.80;100.00;97085.84;5113968;28;20199;-75
2023/12/05 10:41:05;;;;;;;2.10;0.90;;;;;;;6.84;100.00;97084.38;5114075;28;20664;-75
2023/12/05 10:43:31;;;;;;;1.40;0.80;;;;;;;6.83;100.00;97080.94;5113515;28;20231;-75
2023/12/05 10:45:59;;;;;;;2.07;1.10;;;;;;;6.91;100.00;97075.38;5113389;28;20695;-75
2023/12/05 10:48:26;;;;;;;1.90;1.00;;;;;;;6.89;100.00;97074.78;5113810;28;20288;-75
2023/12/05 10:50:53;;;;;;;1.57;0.80;;;;;;;6.89;100.00;97076.63;5113984;28;20318;-75
2023/12/05 10:53:19;;;;;;;1.90;0.80;;;;;;;6.92;100.00;97081.47;5113983;28;20207;-75
2023/12/05 10:55:46;;;;;;;0.97;0.80;;;;;;;6.86;100.00;97082.31;5113932;28;20199;-75
2023/12/05 10:58:14;;;;;;;1.30;0.80;;;;;;;6.89;100.00;97089.81;5113763;28;20205;-75
2023/12/05 11:00:41;;;;;;;1.07;0.60;;;;;;;6.88;100.00;97078.44;5113798;28;20276;-75
2023/12/05 11:03:08;;;;;;;1.33;0.80;;;;;;;6.76;100.00;97082.84;5114011;28;20219;-74
2023/12/05 11:05:35;;;;;;;1.17;0.90;;;;;;;6.85;100.00;97076.25;5113704;28;20199;-74
2023/12/05 11:08:03;;;;;;;2.23;0.63;;;;;;;6.86;100.00;97075.22;5114138;28;20203;-75
2023/12/05 11:10:30;;;;;;;0.90;0.50;;;;;;;6.94;100.00;97082.88;5113804;28;20280;-75
2023/12/05 11:12:59;;;;;;;1.87;0.90;;;;;;;6.88;100.00;97059.94;5113251;28;20195;-75
2023/12/05 11:15:32;;;;;;;0.83;0.70;;;;;;;6.85;100.00;97075.44;5113352;28;20207;-75
2023/12/05 11:18:02;;;;;;;1.00;0.70;;;;;;;6.83;100.00;97072.22;5113957;28;20203;-75
2023/12/05 11:20:47;;;;;;;0.70;0.60;;;;;;;6.77;100.00;97081.00;5113330;28;20233;-75
2023/12/05 11:23:39;;;;;;;0.83;0.83;;;;;;;6.86;100.00;97066.47;5113625;28;20773;-75
2023/12/05 11:26:34;;;;;;;1.80;0.90;;;;;;;6.76;100.00;97058.25;5113743;28;20188;-75
2023/12/05 11:29:04;;;;;;;1.27;0.63;;;;;;;6.78;100.00;97064.94;5112185;28;20258;-75
2023/12/05 11:31:58;;;;;;;1.00;0.80;;;;;;;6.91;100.00;97069.25;5113325;28;20252;-75
2023/12/05 11:34:51;;;;;;;1.33;0.67;;;;;;;6.91;100.00;97069.25;5113228;28;20190;-75